sensor_id;sensor_type;location;lat;lon;timestamp;noise_LAeq;noise_LA_min;noise_LA_max;noise_LA01;noise_LA95
68599;Laerm;18038;50.166;18.908;2023-03-14T00:00:30;53.49;46.18;72.03;;
68599;Laerm;18038;50.166;18.908;2023-03-14T00:03:38;55.29;46.17;72.70;;
68599;Laerm;18038;50.166;18.908;2023-03-14T00:06:44;54.96;46.16;73.15;;
68599;Laerm;18038;50.166;18.908;2023-03-14T00:09:55;53.82;46.14;71.94;;
68599;Laerm;18038;50.166;18.908;2023-03-14T00:13:08;58.12;46.12;76.27;;
68599;Laerm;18038;50.166;18.908;2023-03-14T00:16:24;57.14;46.35;77.67;;
68599;Laerm;18038;50.166;18.908;2023-03-14T00:19:31;54.54;46.08;72.39;;
68599;Laerm;18038;50.166;18.908;2023-03-14T00:22:38;52.26;46.05;73.83;;
68599;Laerm;18038;50.166;18.908;2023-03-14T00:25:47;54.12;46.19;74.69;;
68599;Laerm;18038;50.166;18.908;2023-03-14T00:28:55;54.09;46.02;70.68;;
68599;Laerm;18038;50.166;18.908;2023-03-14T00:32:01;51.83;45.91;73.10;;
68599;Laerm;18038;50.166;18.908;2023-03-14T00:35:08;50.89;46.23;70.50;;
68599;Laerm;18038;50.166;18.908;2023-03-14T00:38:14;55.31;46.23;73.36;;
68599;Laerm;18038;50.166;18.908;2023-03-14T00:41:24;60.94;46.28;79.19;;
68599;Laerm;18038;50.166;18.908;2023-03-14T00:44:30;57.85;46.33;75.93;;
68599;Laerm;18038;50.166;18.908;2023-03-14T00:47:37;58.84;46.16;76.69;;
68599;Laerm;18038;50.166;18.908;2023-03-14T00:50:43;56.12;46.03;78.48;;
68599;Laerm;18038;50.166;18.908;2023-03-14T00:54:03;54.09;46.10;72.58;;
68599;Laerm;18038;50.166;18.908;2023-03-14T00:57:14;56.20;46.24;76.49;;
68599;Laerm;18038;50.166;18.908;2023-03-14T01:00:27;52.60;45.87;71.31;;
68599;Laerm;18038;50.166;18.908;2023-03-14T01:03:33;50.22;46.07;66.83;;
68599;Laerm;18038;50.166;18.908;2023-03-14T01:06:39;55.85;46.23;80.30;;
68599;Laerm;18038;50.166;18.908;2023-03-14T01:09:46;54.10;46.06;73.95;;
68599;Laerm;18038;50.166;18.908;2023-03-14T01:12:56;48.82;45.84;66.27;;
68599;Laerm;18038;50.166;18.908;2023-03-14T01:16:03;51.21;46.04;73.67;;
68599;Laerm;18038;50.166;18.908;2023-03-14T01:19:13;53.16;46.20;69.60;;
68599;Laerm;18038;50.166;18.908;2023-03-14T01:22:18;55.21;46.12;74.45;;
68599;Laerm;18038;50.166;18.908;2023-03-14T01:25:26;51.62;45.99;74.48;;
68599;Laerm;18038;50.166;18.908;2023-03-14T01:28:35;54.23;46.23;81.79;;
68599;Laerm;18038;50.166;18.908;2023-03-14T01:31:49;52.78;46.20;69.85;;
68599;Laerm;18038;50.166;18.908;2023-03-14T01:35:15;53.36;46.02;70.87;;
68599;Laerm;18038;50.166;18.908;2023-03-14T01:38:23;53.72;46.08;70.42;;
68599;Laerm;18038;50.166;18.908;2023-03-14T01:41:29;53.00;46.32;69.49;;
68599;Laerm;18038;50.166;18.908;2023-03-14T01:44:54;50.79;46.33;65.89;;
68599;Laerm;18038;50.166;18.908;2023-03-14T01:48:01;55.41;46.19;75.75;;
68599;Laerm;18038;50.166;18.908;2023-03-14T01:51:13;57.14;46.32;78.14;;
68599;Laerm;18038;50.166;18.908;2023-03-14T01:54:30;59.00;46.15;77.67;;
68599;Laerm;18038;50.166;18.908;2023-03-14T01:57:44;57.69;46.23;76.59;;
68599;Laerm;18038;50.166;18.908;2023-03-14T02:00:55;56.27;46.29;73.68;;
68599;Laerm;18038;50.166;18.908;2023-03-14T02:04:19;53.70;45.96;75.47;;
68599;Laerm;18038;50.166;18.908;2023-03-14T02:07:36;48.28;46.04;67.64;;
68599;Laerm;18038;50.166;18.908;2023-03-14T02:10:51;47.83;46.24;63.67;;
68599;Laerm;18038;50.166;18.908;2023-03-14T02:14:37;47.40;46.00;56.34;;
68599;Laerm;18038;50.166;18.908;2023-03-14T02:18:00;47.46;46.19;56.67;;
68599;Laerm;18038;50.166;18.908;2023-03-14T02:21:48;47.51;46.24;49.54;;
68599;Laerm;18038;50.166;18.908;2023-03-14T02:25:12;48.30;46.24;59.12;;
68599;Laerm;18038;50.166;18.908;2023-03-14T02:28:23;47.54;46.38;49.46;;
68599;Laerm;18038;50.166;18.908;2023-03-14T02:31:36;48.11;46.26;57.52;;
68599;Laerm;18038;50.166;18.908;2023-03-14T02:34:49;48.34;46.36;59.97;;
68599;Laerm;18038;50.166;18.908;2023-03-14T02:38:09;47.54;46.17;48.77;;
68599;Laerm;18038;50.166;18.908;2023-03-14T02:41:19;47.65;46.50;52.58;;
68599;Laerm;18038;50.166;18.908;2023-03-14T02:44:51;48.03;46.49;57.41;;
68599;Laerm;18038;50.166;18.908;2023-03-14T02:48:06;49.04;46.48;61.03;;
68599;Laerm;18038;50.166;18.908;2023-03-14T02:51:19;47.66;46.48;48.90;;
68599;Laerm;18038;50.166;18.908;2023-03-14T02:54:27;47.70;46.39;54.50;;
68599;Laerm;18038;50.166;18.908;2023-03-14T02:57:33;48.68;46.21;58.60;;
68599;Laerm;18038;50.166;18.908;2023-03-14T03:00:49;49.87;46.49;62.67;;
68599;Laerm;18038;50.166;18.908;2023-03-14T03:03:57;48.39;46.24;64.33;;
68599;Laerm;18038;50.166;18.908;2023-03-14T03:07:08;48.46;46.37;61.44;;
68599;Laerm;18038;50.166;18.908;2023-03-14T03:10:15;51.02;46.21;70.93;;
68599;Laerm;18038;50.166;18.908;2023-03-14T03:13:22;48.85;46.34;60.38;;
68599;Laerm;18038;50.166;18.908;2023-03-14T03:16:33;54.04;46.44;74.52;;
68599;Laerm;18038;50.166;18.908;2023-03-14T03:19:40;58.21;46.50;79.24;;
68599;Laerm;18038;50.166;18.908;2023-03-14T03:22:46;55.14;46.36;73.80;;
68599;Laerm;18038;50.166;18.908;2023-03-14T03:25:53;59.20;46.35;80.17;;
68599;Laerm;18038;50.166;18.908;2023-03-14T03:28:59;63.22;46.69;79.90;;
68599;Laerm;18038;50.166;18.908;2023-03-14T03:32:09;62.74;46.61;84.10;;
68599;Laerm;18038;50.166;18.908;2023-03-14T03:35:16;54.61;46.47;74.50;;
68599;Laerm;18038;50.166;18.908;2023-03-14T03:38:23;60.60;46.52;79.51;;
68599;Laerm;18038;50.166;18.908;2023-03-14T03:41:30;58.21;46.53;76.85;;
68599;Laerm;18038;50.166;18.908;2023-03-14T03:44:38;54.07;46.52;74.74;;
68599;Laerm;18038;50.166;18.908;2023-03-14T03:47:48;56.13;46.56;77.93;;
68599;Laerm;18038;50.166;18.908;2023-03-14T03:50:59;54.75;46.45;78.11;;
68599;Laerm;18038;50.166;18.908;2023-03-14T03:54:05;50.32;46.51;64.83;;
68599;Laerm;18038;50.166;18.908;2023-03-14T03:57:14;52.43;46.74;67.89;;
68599;Laerm;18038;50.166;18.908;2023-03-14T04:00:38;51.28;46.41;71.76;;
68599;Laerm;18038;50.166;18.908;2023-03-14T04:03:54;51.03;46.61;67.82;;
68599;Laerm;18038;50.166;18.908;2023-03-14T04:07:01;49.61;46.42;58.06;;
68599;Laerm;18038;50.166;18.908;2023-03-14T04:10:10;51.06;46.00;69.91;;
68599;Laerm;18038;50.166;18.908;2023-03-14T04:13:23;50.06;46.22;62.88;;
68599;Laerm;18038;50.166;18.908;2023-03-14T04:16:32;50.48;46.73;62.59;;
68599;Laerm;18038;50.166;18.908;2023-03-14T04:19:50;53.40;46.70;70.41;;
68599;Laerm;18038;50.166;18.908;2023-03-14T04:23:03;52.68;46.70;74.46;;
68599;Laerm;18038;50.166;18.908;2023-03-14T04:26:10;52.76;46.82;69.25;;
68599;Laerm;18038;50.166;18.908;2023-03-14T04:29:19;52.23;47.05;65.87;;
68599;Laerm;18038;50.166;18.908;2023-03-14T04:32:25;56.54;46.62;72.21;;
68599;Laerm;18038;50.166;18.908;2023-03-14T04:35:36;58.66;46.85;80.70;;
68599;Laerm;18038;50.166;18.908;2023-03-14T04:38:45;60.23;47.69;83.81;;
68599;Laerm;18038;50.166;18.908;2023-03-14T04:41:56;64.40;47.28;82.89;;
68599;Laerm;18038;50.166;18.908;2023-03-14T04:45:03;61.11;46.79;85.02;;
68599;Laerm;18038;50.166;18.908;2023-03-14T04:48:11;58.01;46.98;78.78;;
68599;Laerm;18038;50.166;18.908;2023-03-14T04:51:21;59.25;47.54;78.86;;
68599;Laerm;18038;50.166;18.908;2023-03-14T04:54:40;56.60;47.24;81.08;;
68599;Laerm;18038;50.166;18.908;2023-03-14T04:57:49;53.27;47.29;65.72;;
68599;Laerm;18038;50.166;18.908;2023-03-14T05:01:02;53.04;46.86;71.70;;
68599;Laerm;18038;50.166;18.908;2023-03-14T05:04:09;51.91;47.00;63.27;;
68599;Laerm;18038;50.166;18.908;2023-03-14T05:07:35;51.45;46.65;62.49;;
68599;Laerm;18038;50.166;18.908;2023-03-14T05:10:55;51.46;46.97;64.27;;
68599;Laerm;18038;50.166;18.908;2023-03-14T05:14:17;53.17;46.98;71.24;;
68599;Laerm;18038;50.166;18.908;2023-03-14T05:17:33;52.02;46.87;66.93;;
68599;Laerm;18038;50.166;18.908;2023-03-14T05:20:51;51.38;46.76;60.65;;
68599;Laerm;18038;50.166;18.908;2023-03-14T05:24:18;53.75;47.20;68.09;;
68599;Laerm;18038;50.166;18.908;2023-03-14T05:27:40;53.37;47.69;68.70;;
68599;Laerm;18038;50.166;18.908;2023-03-14T05:31:01;52.58;47.55;66.76;;
68599;Laerm;18038;50.166;18.908;2023-03-14T05:34:31;51.95;47.63;60.49;;
68599;Laerm;18038;50.166;18.908;2023-03-14T05:38:02;52.24;47.68;65.31;;
68599;Laerm;18038;50.166;18.908;2023-03-14T05:41:46;54.46;47.64;69.87;;
68599;Laerm;18038;50.166;18.908;2023-03-14T05:45:17;53.99;47.86;69.26;;
68599;Laerm;18038;50.166;18.908;2023-03-14T05:48:30;54.34;47.90;74.48;;
68599;Laerm;18038;50.166;18.908;2023-03-14T05:51:43;53.31;47.37;68.93;;
68599;Laerm;18038;50.166;18.908;2023-03-14T05:55:07;55.05;48.07;70.99;;
68599;Laerm;18038;50.166;18.908;2023-03-14T05:58:38;56.85;47.67;78.29;;
68599;Laerm;18038;50.166;18.908;2023-03-14T06:02:20;54.46;47.30;71.07;;
68599;Laerm;18038;50.166;18.908;2023-03-14T06:05:36;55.35;47.43;73.57;;
68599;Laerm;18038;50.166;18.908;2023-03-14T06:08:43;53.62;46.77;69.16;;
68599;Laerm;18038;50.166;18.908;2023-03-14T06:11:49;55.53;47.35;73.49;;
68599;Laerm;18038;50.166;18.908;2023-03-14T06:15:01;54.84;47.43;74.01;;
68599;Laerm;18038;50.166;18.908;2023-03-14T06:18:09;60.32;47.86;83.38;;
68599;Laerm;18038;50.166;18.908;2023-03-14T06:21:19;54.45;47.37;72.91;;
68599;Laerm;18038;50.166;18.908;2023-03-14T06:24:25;55.40;47.27;74.39;;
68599;Laerm;18038;50.166;18.908;2023-03-14T06:27:35;56.67;47.38;72.80;;
68599;Laerm;18038;50.166;18.908;2023-03-14T06:30:44;53.35;47.60;69.72;;
68599;Laerm;18038;50.166;18.908;2023-03-14T06:33:51;57.54;48.43;76.81;;
68599;Laerm;18038;50.166;18.908;2023-03-14T06:37:04;56.54;48.07;74.27;;
68599;Laerm;18038;50.166;18.908;2023-03-14T06:40:12;56.49;48.38;74.53;;
68599;Laerm;18038;50.166;18.908;2023-03-14T06:43:40;56.12;49.36;72.25;;
68599;Laerm;18038;50.166;18.908;2023-03-14T06:46:51;59.49;48.73;79.83;;
68599;Laerm;18038;50.166;18.908;2023-03-14T06:49:57;60.25;48.53;78.15;;
68599;Laerm;18038;50.166;18.908;2023-03-14T06:53:06;59.28;47.98;83.96;;
68599;Laerm;18038;50.166;18.908;2023-03-14T06:56:15;57.29;48.48;73.76;;
68599;Laerm;18038;50.166;18.908;2023-03-14T06:59:23;59.92;48.23;80.41;;
68599;Laerm;18038;50.166;18.908;2023-03-14T07:02:32;56.82;48.42;75.03;;
68599;Laerm;18038;50.166;18.908;2023-03-14T07:05:57;60.64;48.13;80.14;;
68599;Laerm;18038;50.166;18.908;2023-03-14T07:09:03;61.78;48.63;84.88;;
68599;Laerm;18038;50.166;18.908;2023-03-14T07:12:17;57.67;47.90;81.34;;
68599;Laerm;18038;50.166;18.908;2023-03-14T07:15:23;60.94;48.74;77.67;;
68599;Laerm;18038;50.166;18.908;2023-03-14T07:18:37;59.14;47.59;78.70;;
68599;Laerm;18038;50.166;18.908;2023-03-14T07:21:44;57.84;47.63;79.03;;
68599;Laerm;18038;50.166;18.908;2023-03-14T07:24:56;54.79;49.07;69.09;;
68599;Laerm;18038;50.166;18.908;2023-03-14T07:28:03;59.96;48.15;80.99;;
68599;Laerm;18038;50.166;18.908;2023-03-14T07:31:12;57.62;47.67;79.50;;
68599;Laerm;18038;50.166;18.908;2023-03-14T07:34:21;55.38;47.87;74.97;;
68599;Laerm;18038;50.166;18.908;2023-03-14T07:37:28;56.72;47.81;77.17;;
68599;Laerm;18038;50.166;18.908;2023-03-14T07:40:36;58.30;47.91;78.42;;
68599;Laerm;18038;50.166;18.908;2023-03-14T07:43:43;60.19;49.13;76.65;;
68599;Laerm;18038;50.166;18.908;2023-03-14T07:46:49;61.76;47.99;81.68;;
68599;Laerm;18038;50.166;18.908;2023-03-14T07:49:59;62.66;47.89;87.30;;
68599;Laerm;18038;50.166;18.908;2023-03-14T07:53:05;56.08;47.89;77.22;;
68599;Laerm;18038;50.166;18.908;2023-03-14T07:56:12;57.23;48.19;74.30;;
68599;Laerm;18038;50.166;18.908;2023-03-14T07:59:18;59.84;47.97;84.07;;
68599;Laerm;18038;50.166;18.908;2023-03-14T08:02:25;54.25;47.58;74.08;;
68599;Laerm;18038;50.166;18.908;2023-03-14T08:05:35;58.82;47.79;82.52;;
68599;Laerm;18038;50.166;18.908;2023-03-14T08:08:41;60.09;47.73;82.96;;
68599;Laerm;18038;50.166;18.908;2023-03-14T08:11:47;59.07;47.72;82.19;;
68599;Laerm;18038;50.166;18.908;2023-03-14T08:14:54;59.51;47.81;77.27;;
68599;Laerm;18038;50.166;18.908;2023-03-14T08:18:05;56.39;47.67;79.44;;
68599;Laerm;18038;50.166;18.908;2023-03-14T08:21:14;58.52;47.79;77.47;;
68599;Laerm;18038;50.166;18.908;2023-03-14T08:24:20;59.33;48.33;79.42;;
68599;Laerm;18038;50.166;18.908;2023-03-14T08:27:27;53.37;47.86;68.92;;
68599;Laerm;18038;50.166;18.908;2023-03-14T08:30:33;54.24;47.82;72.11;;
68599;Laerm;18038;50.166;18.908;2023-03-14T08:33:40;55.04;47.27;74.23;;
68599;Laerm;18038;50.166;18.908;2023-03-14T08:36:49;55.23;47.28;75.62;;
68599;Laerm;18038;50.166;18.908;2023-03-14T08:39:56;53.47;46.96;71.92;;
68599;Laerm;18038;50.166;18.908;2023-03-14T08:43:02;52.01;47.49;68.93;;
68599;Laerm;18038;50.166;18.908;2023-03-14T08:46:08;53.09;48.06;66.11;;
68599;Laerm;18038;50.166;18.908;2023-03-14T08:49:14;52.07;47.44;65.88;;
68599;Laerm;18038;50.166;18.908;2023-03-14T08:52:24;55.86;47.61;84.63;;
68599;Laerm;18038;50.166;18.908;2023-03-14T08:55:30;51.90;47.43;62.07;;
68599;Laerm;18038;50.166;18.908;2023-03-14T08:58:37;51.81;46.92;63.25;;
68599;Laerm;18038;50.166;18.908;2023-03-14T09:01:46;55.67;47.63;79.72;;
68599;Laerm;18038;50.166;18.908;2023-03-14T09:04:53;53.88;47.72;67.82;;
68599;Laerm;18038;50.166;18.908;2023-03-14T09:08:02;56.44;47.40;75.48;;
68599;Laerm;18038;50.166;18.908;2023-03-14T09:11:09;61.95;47.74;83.31;;
68599;Laerm;18038;50.166;18.908;2023-03-14T09:14:15;53.86;47.53;71.24;;
68599;Laerm;18038;50.166;18.908;2023-03-14T09:17:25;57.13;47.87;75.31;;
68599;Laerm;18038;50.166;18.908;2023-03-14T09:20:31;51.93;47.19;66.09;;
68599;Laerm;18038;50.166;18.908;2023-03-14T09:23:41;54.41;47.77;70.71;;
68599;Laerm;18038;50.166;18.908;2023-03-14T09:26:48;59.76;47.75;80.37;;
68599;Laerm;18038;50.166;18.908;2023-03-14T09:29:57;56.70;47.95;73.69;;
68599;Laerm;18038;50.166;18.908;2023-03-14T09:33:03;52.39;47.49;66.65;;
68599;Laerm;18038;50.166;18.908;2023-03-14T09:36:10;57.89;48.10;77.04;;
68599;Laerm;18038;50.166;18.908;2023-03-14T09:39:22;52.82;47.40;65.87;;
68599;Laerm;18038;50.166;18.908;2023-03-14T09:42:29;52.96;47.30;66.38;;
68599;Laerm;18038;50.166;18.908;2023-03-14T09:45:38;52.52;47.40;66.16;;
68599;Laerm;18038;50.166;18.908;2023-03-14T09:48:46;59.17;47.23;75.91;;
68599;Laerm;18038;50.166;18.908;2023-03-14T09:51:56;59.99;47.59;78.85;;
68599;Laerm;18038;50.166;18.908;2023-03-14T09:55:15;54.90;47.77;75.33;;
68599;Laerm;18038;50.166;18.908;2023-03-14T09:58:24;55.33;47.18;76.64;;
68599;Laerm;18038;50.166;18.908;2023-03-14T10:01:33;58.84;47.08;84.58;;
68599;Laerm;18038;50.166;18.908;2023-03-14T10:04:42;53.31;47.87;69.05;;
68599;Laerm;18038;50.166;18.908;2023-03-14T10:07:51;55.38;47.68;74.13;;
68599;Laerm;18038;50.166;18.908;2023-03-14T10:10:59;57.56;47.28;78.62;;
68599;Laerm;18038;50.166;18.908;2023-03-14T10:14:08;57.93;47.35;80.26;;
68599;Laerm;18038;50.166;18.908;2023-03-14T10:17:19;57.64;47.75;80.33;;
68599;Laerm;18038;50.166;18.908;2023-03-14T10:20:32;51.85;47.34;72.43;;
68599;Laerm;18038;50.166;18.908;2023-03-14T10:23:39;52.21;47.72;65.41;;
68599;Laerm;18038;50.166;18.908;2023-03-14T10:26:54;53.42;47.69;68.78;;
68599;Laerm;18038;50.166;18.908;2023-03-14T10:30:05;52.98;47.42;67.27;;
68599;Laerm;18038;50.166;18.908;2023-03-14T10:33:25;52.69;47.14;71.37;;
68599;Laerm;18038;50.166;18.908;2023-03-14T10:36:34;51.69;47.34;61.84;;
68599;Laerm;18038;50.166;18.908;2023-03-14T10:39:47;51.15;47.29;62.52;;
68599;Laerm;18038;50.166;18.908;2023-03-14T10:42:59;53.39;46.76;67.72;;
68599;Laerm;18038;50.166;18.908;2023-03-14T10:46:15;54.50;46.91;72.59;;
68599;Laerm;18038;50.166;18.908;2023-03-14T10:49:41;53.77;47.80;71.48;;
68599;Laerm;18038;50.166;18.908;2023-03-14T10:52:48;53.85;47.81;72.07;;
68599;Laerm;18038;50.166;18.908;2023-03-14T10:56:06;61.31;48.08;87.02;;
68599;Laerm;18038;50.166;18.908;2023-03-14T10:59:16;57.59;48.30;76.31;;
68599;Laerm;18038;50.166;18.908;2023-03-14T11:02:44;60.00;49.00;80.00;;
68599;Laerm;18038;50.166;18.908;2023-03-14T11:05:59;56.56;48.96;71.86;;
68599;Laerm;18038;50.166;18.908;2023-03-14T11:09:21;55.28;47.93;80.75;;
68599;Laerm;18038;50.166;18.908;2023-03-14T11:12:50;60.20;48.85;81.78;;
68599;Laerm;18038;50.166;18.908;2023-03-14T11:16:24;58.17;47.69;80.36;;
68599;Laerm;18038;50.166;18.908;2023-03-14T11:19:55;57.82;47.53;78.60;;
68599;Laerm;18038;50.166;18.908;2023-03-14T11:23:14;56.02;47.98;75.57;;
68599;Laerm;18038;50.166;18.908;2023-03-14T11:26:34;54.31;48.12;75.48;;
68599;Laerm;18038;50.166;18.908;2023-03-14T11:30:02;54.47;48.28;71.66;;
68599;Laerm;18038;50.166;18.908;2023-03-14T11:33:28;53.34;47.93;70.21;;
68599;Laerm;18038;50.166;18.908;2023-03-14T11:36:47;53.92;48.16;69.66;;
68599;Laerm;18038;50.166;18.908;2023-03-14T11:40:17;53.43;48.39;66.33;;
68599;Laerm;18038;50.166;18.908;2023-03-14T11:43:29;57.83;48.08;73.76;;
68599;Laerm;18038;50.166;18.908;2023-03-14T11:46:45;54.87;48.54;73.22;;
68599;Laerm;18038;50.166;18.908;2023-03-14T11:50:03;54.30;47.81;71.12;;
68599;Laerm;18038;50.166;18.908;2023-03-14T11:53:19;51.39;47.77;62.47;;
68599;Laerm;18038;50.166;18.908;2023-03-14T11:56:37;52.05;47.67;67.23;;
68599;Laerm;18038;50.166;18.908;2023-03-14T11:59:55;52.51;47.39;64.72;;
68599;Laerm;18038;50.166;18.908;2023-03-14T12:03:28;54.87;47.81;69.30;;
68599;Laerm;18038;50.166;18.908;2023-03-14T12:06:52;57.14;48.03;76.74;;
68599;Laerm;18038;50.166;18.908;2023-03-14T12:09:58;56.82;48.29;75.09;;
68599;Laerm;18038;50.166;18.908;2023-03-14T12:13:08;54.00;47.75;74.69;;
68599;Laerm;18038;50.166;18.908;2023-03-14T12:16:35;56.64;48.18;75.78;;
68599;Laerm;18038;50.166;18.908;2023-03-14T12:19:44;53.33;48.25;68.95;;
68599;Laerm;18038;50.166;18.908;2023-03-14T12:23:02;52.81;47.48;64.51;;
68599;Laerm;18038;50.166;18.908;2023-03-14T12:26:20;54.16;47.77;66.86;;
68599;Laerm;18038;50.166;18.908;2023-03-14T12:29:28;53.35;47.84;69.75;;
68599;Laerm;18038;50.166;18.908;2023-03-14T12:32:40;52.65;48.00;63.37;;
68599;Laerm;18038;50.166;18.908;2023-03-14T12:36:10;52.59;47.84;66.64;;
68599;Laerm;18038;50.166;18.908;2023-03-14T12:39:38;53.89;48.84;70.05;;
68599;Laerm;18038;50.166;18.908;2023-03-14T12:42:59;55.21;48.18;71.48;;
68599;Laerm;18038;50.166;18.908;2023-03-14T12:46:21;53.10;48.00;71.23;;
68599;Laerm;18038;50.166;18.908;2023-03-14T12:49:31;52.97;48.29;68.86;;
68599;Laerm;18038;50.166;18.908;2023-03-14T12:56:28;55.82;48.32;74.11;;
68599;Laerm;18038;50.166;18.908;2023-03-14T12:59:51;53.00;48.05;63.30;;
68599;Laerm;18038;50.166;18.908;2023-03-14T13:03:17;55.07;48.63;74.45;;
68599;Laerm;18038;50.166;18.908;2023-03-14T13:06:50;53.81;48.25;62.58;;
68599;Laerm;18038;50.166;18.908;2023-03-14T13:10:17;53.46;48.85;67.12;;
68599;Laerm;18038;50.166;18.908;2023-03-14T13:13:45;53.80;48.51;73.84;;
68599;Laerm;18038;50.166;18.908;2023-03-14T13:16:52;53.69;49.24;67.73;;
68599;Laerm;18038;50.166;18.908;2023-03-14T13:20:11;52.99;48.17;69.53;;
68599;Laerm;18038;50.166;18.908;2023-03-14T13:23:24;53.35;48.80;65.88;;
68599;Laerm;18038;50.166;18.908;2023-03-14T13:26:39;54.09;48.26;71.46;;
68599;Laerm;18038;50.166;18.908;2023-03-14T13:29:50;54.42;48.29;65.76;;
68599;Laerm;18038;50.166;18.908;2023-03-14T13:32:57;53.30;48.38;60.53;;
68599;Laerm;18038;50.166;18.908;2023-03-14T13:36:09;52.61;48.14;63.80;;
68599;Laerm;18038;50.166;18.908;2023-03-14T13:39:20;53.33;48.22;64.09;;
68599;Laerm;18038;50.166;18.908;2023-03-14T13:42:30;52.04;47.82;60.41;;
68599;Laerm;18038;50.166;18.908;2023-03-14T13:46:11;52.42;48.20;60.44;;
68599;Laerm;18038;50.166;18.908;2023-03-14T13:49:24;52.51;48.33;67.80;;
68599;Laerm;18038;50.166;18.908;2023-03-14T13:52:37;52.96;47.78;65.38;;
68599;Laerm;18038;50.166;18.908;2023-03-14T13:55:43;54.00;47.99;66.09;;
68599;Laerm;18038;50.166;18.908;2023-03-14T13:58:51;54.62;48.49;75.61;;
68599;Laerm;18038;50.166;18.908;2023-03-14T14:02:12;56.02;48.69;77.65;;
68599;Laerm;18038;50.166;18.908;2023-03-14T14:05:23;52.58;48.38;64.09;;
68599;Laerm;18038;50.166;18.908;2023-03-14T14:08:31;53.60;48.37;63.16;;
68599;Laerm;18038;50.166;18.908;2023-03-14T14:11:48;53.35;48.50;65.64;;
68599;Laerm;18038;50.166;18.908;2023-03-14T14:15:22;53.27;48.07;70.25;;
68599;Laerm;18038;50.166;18.908;2023-03-14T14:18:36;52.92;48.79;61.30;;
68599;Laerm;18038;50.166;18.908;2023-03-14T14:21:43;54.47;48.08;76.33;;
68599;Laerm;18038;50.166;18.908;2023-03-14T14:24:51;53.62;48.38;71.69;;
68599;Laerm;18038;50.166;18.908;2023-03-14T14:27:57;56.34;48.48;69.80;;
68599;Laerm;18038;50.166;18.908;2023-03-14T14:31:21;54.56;48.88;71.19;;
68599;Laerm;18038;50.166;18.908;2023-03-14T14:34:39;53.73;48.59;65.91;;
68599;Laerm;18038;50.166;18.908;2023-03-14T14:37:53;52.80;48.51;68.09;;
68599;Laerm;18038;50.166;18.908;2023-03-14T14:41:02;53.97;48.26;69.39;;
68599;Laerm;18038;50.166;18.908;2023-03-14T14:44:16;53.97;47.74;70.29;;
68599;Laerm;18038;50.166;18.908;2023-03-14T14:47:28;55.89;48.79;71.50;;
68599;Laerm;18038;50.166;18.908;2023-03-14T14:50:50;55.05;48.70;70.82;;
68599;Laerm;18038;50.166;18.908;2023-03-14T14:54:11;54.54;48.08;70.59;;
68599;Laerm;18038;50.166;18.908;2023-03-14T14:57:23;52.37;47.86;62.65;;
68599;Laerm;18038;50.166;18.908;2023-03-14T15:00:32;53.17;47.87;75.68;;
68599;Laerm;18038;50.166;18.908;2023-03-14T15:03:44;53.11;48.43;64.23;;
68599;Laerm;18038;50.166;18.908;2023-03-14T15:06:53;52.77;47.90;63.98;;
68599;Laerm;18038;50.166;18.908;2023-03-14T15:10:00;53.08;48.15;69.98;;
68599;Laerm;18038;50.166;18.908;2023-03-14T15:13:07;54.64;48.25;73.59;;
68599;Laerm;18038;50.166;18.908;2023-03-14T15:16:22;54.48;48.38;69.98;;
68599;Laerm;18038;50.166;18.908;2023-03-14T15:19:29;56.41;48.68;73.18;;
68599;Laerm;18038;50.166;18.908;2023-03-14T15:22:40;56.17;48.89;74.99;;
68599;Laerm;18038;50.166;18.908;2023-03-14T15:25:47;54.82;48.75;69.65;;
68599;Laerm;18038;50.166;18.908;2023-03-14T15:28:58;53.24;48.46;67.16;;
68599;Laerm;18038;50.166;18.908;2023-03-14T15:32:05;53.60;48.39;60.97;;
68599;Laerm;18038;50.166;18.908;2023-03-14T15:35:12;52.67;48.48;65.10;;
68599;Laerm;18038;50.166;18.908;2023-03-14T15:38:23;53.89;48.13;68.06;;
68599;Laerm;18038;50.166;18.908;2023-03-14T15:41:30;54.76;48.95;70.98;;
68599;Laerm;18038;50.166;18.908;2023-03-14T15:44:37;59.12;48.50;77.37;;
68599;Laerm;18038;50.166;18.908;2023-03-14T15:47:44;61.44;48.78;78.90;;
68599;Laerm;18038;50.166;18.908;2023-03-14T15:50:50;55.98;47.95;79.13;;
68599;Laerm;18038;50.166;18.908;2023-03-14T15:53:59;59.54;48.81;79.99;;
68599;Laerm;18038;50.166;18.908;2023-03-14T15:57:05;57.76;48.49;76.28;;
68599;Laerm;18038;50.166;18.908;2023-03-14T16:00:16;58.38;48.05;81.25;;
68599;Laerm;18038;50.166;18.908;2023-03-14T16:03:24;57.57;47.70;80.76;;
68599;Laerm;18038;50.166;18.908;2023-03-14T16:06:31;55.34;48.82;71.81;;
68599;Laerm;18038;50.166;18.908;2023-03-14T16:09:41;57.15;47.93;76.83;;
68599;Laerm;18038;50.166;18.908;2023-03-14T16:12:50;57.98;48.09;77.07;;
68599;Laerm;18038;50.166;18.908;2023-03-14T16:16:07;54.67;47.60;70.11;;
68599;Laerm;18038;50.166;18.908;2023-03-14T16:19:16;57.05;48.09;76.85;;
68599;Laerm;18038;50.166;18.908;2023-03-14T16:22:22;56.97;48.16;76.42;;
68599;Laerm;18038;50.166;18.908;2023-03-14T16:25:32;54.34;48.09;71.44;;
68599;Laerm;18038;50.166;18.908;2023-03-14T16:28:38;54.25;47.99;73.20;;
68599;Laerm;18038;50.166;18.908;2023-03-14T16:31:45;53.56;48.01;69.43;;
68599;Laerm;18038;50.166;18.908;2023-03-14T16:34:54;52.15;47.92;62.07;;
68599;Laerm;18038;50.166;18.908;2023-03-14T16:38:12;53.37;48.42;67.80;;
68599;Laerm;18038;50.166;18.908;2023-03-14T16:41:20;55.60;48.60;74.35;;
68599;Laerm;18038;50.166;18.908;2023-03-14T16:44:28;54.58;48.54;67.23;;
68599;Laerm;18038;50.166;18.908;2023-03-14T16:47:35;53.22;48.03;67.24;;
68599;Laerm;18038;50.166;18.908;2023-03-14T16:50:42;51.85;47.36;66.57;;
68599;Laerm;18038;50.166;18.908;2023-03-14T16:53:51;52.69;48.19;65.38;;
68599;Laerm;18038;50.166;18.908;2023-03-14T16:57:00;51.91;47.59;61.91;;
68599;Laerm;18038;50.166;18.908;2023-03-14T17:00:11;51.74;47.61;62.57;;
68599;Laerm;18038;50.166;18.908;2023-03-14T17:03:18;52.03;47.90;62.09;;
68599;Laerm;18038;50.166;18.908;2023-03-14T17:06:27;51.97;47.62;57.64;;
68599;Laerm;18038;50.166;18.908;2023-03-14T17:09:34;51.91;47.39;59.07;;
68599;Laerm;18038;50.166;18.908;2023-03-14T17:12:44;51.74;47.55;64.55;;
68599;Laerm;18038;50.166;18.908;2023-03-14T17:15:53;51.94;47.82;66.74;;
68599;Laerm;18038;50.166;18.908;2023-03-14T17:19:00;52.09;47.60;63.05;;
68599;Laerm;18038;50.166;18.908;2023-03-14T17:22:16;51.82;47.74;63.19;;
68599;Laerm;18038;50.166;18.908;2023-03-14T17:25:35;50.93;47.60;62.30;;
68599;Laerm;18038;50.166;18.908;2023-03-14T17:28:46;52.22;47.82;61.14;;
68599;Laerm;18038;50.166;18.908;2023-03-14T17:31:52;50.52;47.23;66.64;;
68599;Laerm;18038;50.166;18.908;2023-03-14T17:35:06;50.31;47.17;58.99;;
68599;Laerm;18038;50.166;18.908;2023-03-14T17:38:27;51.30;47.25;59.13;;
68599;Laerm;18038;50.166;18.908;2023-03-14T17:41:36;50.33;47.41;56.89;;
68599;Laerm;18038;50.166;18.908;2023-03-14T17:44:48;50.63;47.21;60.17;;